This is the latest recevied weather packets stored in our database for station/object CT4TX-11. If no packets are shown the sender has not sent any weather packets the latest 10 day(s).
| Time | Temp. | Humidity | Pressure | Rain* | Wind** | Luminosity | Snow |
|---|---|---|---|---|---|---|---|
| 1777237462 | 28.33° C | 43% | 1004 hPa | - | - | - | - |
| 1777236562 | 28.33° C | 43% | 1004 hPa | - | - | - | - |
| 1777235662 | 28.33° C | 42% | 1004.1 hPa | - | - | - | - |
| 1777234761 | 28.33° C | 43% | 1004.1 hPa | - | - | - | - |
| 1777233861 | 28.33° C | 42% | 1004 hPa | - | - | - | - |
| 1777232961 | 28.89° C | 41% | 1003.8 hPa | - | - | - | - |
| 1777232061 | 30° C | 38% | 1003.8 hPa | - | - | - | - |
| 1777231160 | 30° C | 38% | 1003.7 hPa | - | - | - | - |
| 1777230260 | 30° C | 38% | 1003.5 hPa | - | - | - | - |
| 1777229360 | 30.56° C | 38% | 1003.4 hPa | - | - | - | - |
| 1777228462 | 30° C | 38% | 1003.4 hPa | - | - | - | - |
| 1777227559 | 30° C | 39% | 1003.3 hPa | - | - | - | - |
| 1777227441 | 30° C | 39% | 1003.2 hPa | - | - | - | - |
| 1777227255 | 29.44° C | 39% | 1003.2 hPa | - | - | - | - |
| 1777227247 | 30° C | 39% | 1003.2 hPa | - | - | - | - |
| 1777226732 | 30.56° C | 39% | 1003.2 hPa | - | - | - | - |
| 1777225832 | 29.44° C | 41% | 1003.1 hPa | - | - | - | - |
| 1777224932 | 29.44° C | 42% | 1003.2 hPa | - | - | - | - |
| 1777224031 | 29.44° C | 42% | 1003.3 hPa | - | - | - | - |
| 1777223131 | 29.44° C | 43% | 1003.4 hPa | - | - | - | - |
| 1777222231 | 28.89° C | 44% | 1003.5 hPa | - | - | - | - |
| 1777221331 | 30° C | 43% | 1003.7 hPa | - | - | - | - |
| 1777220431 | 29.44° C | 44% | 1003.4 hPa | - | - | - | - |
| 1777219530 | 30° C | 42% | 1003.4 hPa | - | - | - | - |
| 1777218630 | 29.44° C | 43% | 1003.5 hPa | - | - | - | - |
* Rain since midnight (hover to see other rain measurements)
** Current wind speed in m/s (hover to see current wind gust speed)